createdAt,value
2018-07-22T00:00:17.882Z,100884.04
2018-07-22T00:02:46.764Z,100888.45
2018-07-22T00:05:15.770Z,100883.77
2018-07-22T00:07:44.681Z,100884.91
2018-07-22T00:10:30.533Z,100889.86
2018-07-22T00:13:00.384Z,100887.92
2018-07-22T00:15:29.311Z,100889.06
2018-07-22T00:17:58.216Z,100891.37
2018-07-22T00:20:27.141Z,100897.46
2018-07-22T00:22:56.057Z,100897.23
2018-07-22T00:25:24.950Z,100902.71
2018-07-22T00:27:53.917Z,100899.83
2018-07-22T00:30:22.827Z,100902.34
2018-07-22T00:32:51.759Z,100901.03
2018-07-22T00:35:20.691Z,100906.63
2018-07-22T00:37:49.609Z,100906.06
2018-07-22T00:40:18.487Z,100901.95
2018-07-22T00:42:47.411Z,100907.34
2018-07-22T00:45:16.308Z,100905.28
2018-07-22T00:47:45.221Z,100911.23
2018-07-22T00:50:14.184Z,100900.73
2018-07-22T00:52:43.105Z,100904.58
2018-07-22T00:55:12.037Z,100903.80
2018-07-22T00:57:40.976Z,100906.42
2018-07-22T01:00:09.899Z,100904.02
2018-07-22T01:02:38.780Z,100905.02
2018-07-22T01:05:07.971Z,100907.56
2018-07-22T01:07:36.933Z,100903.62
2018-07-22T01:10:06.082Z,100908.34
2018-07-22T01:12:35.056Z,100906.08
2018-07-22T01:15:03.989Z,100897.73
2018-07-22T01:17:32.919Z,100897.69
2018-07-22T01:20:01.852Z,100898.84
2018-07-22T01:22:30.736Z,100900.50
2018-07-22T01:24:59.758Z,100906.76
2018-07-22T01:27:28.669Z,100907.83
2018-07-22T01:29:58.277Z,100901.63
2018-07-22T01:32:27.204Z,100907.61
2018-07-22T01:34:56.117Z,100906.29
2018-07-22T01:37:25.044Z,100907.64
2018-07-22T01:39:53.946Z,100906.58
2018-07-22T01:42:22.992Z,100908.85
2018-07-22T01:44:51.912Z,100904.23
2018-07-22T01:47:20.873Z,100913.55
2018-07-22T01:49:51.892Z,100908.09
2018-07-22T01:52:20.786Z,100911.41
2018-07-22T01:54:49.722Z,100911.98
2018-07-22T01:57:18.664Z,100914.83
2018-07-22T01:59:47.553Z,100916.42
2018-07-22T02:02:16.797Z,100921.52
2018-07-22T02:04:45.733Z,100919.56
2018-07-22T02:07:14.639Z,100918.57
2018-07-22T02:09:43.559Z,100923.22
2018-07-22T02:12:12.474Z,100926.23
2018-07-22T02:14:41.418Z,100923.53
2018-07-22T02:17:10.343Z,100920.48
2018-07-22T02:19:39.272Z,100923.03
2018-07-22T02:22:08.155Z,100926.62
2018-07-22T02:24:37.083Z,100923.91
2018-07-22T02:27:06.007Z,100932.05
2018-07-22T02:29:34.905Z,100929.36
2018-07-22T02:32:03.861Z,100927.72
2018-07-22T02:34:32.787Z,100915.39
2018-07-22T02:37:01.700Z,100925.30
2018-07-22T02:39:30.605Z,100923.91
2018-07-22T02:41:59.521Z,100925.81
2018-07-22T02:44:28.677Z,100924.75
2018-07-22T02:46:57.885Z,100921.78
2018-07-22T02:49:27.006Z,100920.42
2018-07-22T02:51:56.319Z,100923.39
2018-07-22T02:54:25.242Z,100916.31
2018-07-22T02:56:54.239Z,100919.05
2018-07-22T02:59:23.151Z,100920.98
2018-07-22T03:01:52.040Z,100925.33
2018-07-22T03:04:20.967Z,100933.30
2018-07-22T03:06:49.916Z,100930.63
2018-07-22T03:09:18.847Z,100933.36
2018-07-22T03:11:47.768Z,100929.01
2018-07-22T03:14:16.659Z,100935.28
2018-07-22T03:16:45.641Z,100934.44
2018-07-22T03:19:14.555Z,100940.20
2018-07-22T03:21:43.466Z,100937.74
2018-07-22T03:24:12.369Z,100944.59
2018-07-22T03:26:41.324Z,100947.40
2018-07-22T03:29:10.289Z,100946.58
2018-07-22T03:31:39.232Z,100953.42
2018-07-22T03:34:08.400Z,100966.81
2018-07-22T03:36:37.276Z,100964.36
2018-07-22T03:39:08.122Z,100965.72
2018-07-22T03:41:37.108Z,100970.11
2018-07-22T03:44:06.167Z,100971.24
2018-07-22T03:46:35.301Z,100972.88
2018-07-22T03:49:04.237Z,100971.80
2018-07-22T03:51:33.143Z,100975.91
2018-07-22T03:54:02.032Z,100973.20
2018-07-22T03:56:30.949Z,100981.11
2018-07-22T03:58:59.866Z,100974.80
2018-07-22T04:01:28.779Z,100976.20
2018-07-22T04:03:57.735Z,100982.22
2018-07-22T04:06:26.617Z,100984.19
2018-07-22T04:08:55.531Z,100986.89
2018-07-22T04:11:24.423Z,100987.72
2018-07-22T04:13:53.348Z,100980.91
2018-07-22T04:16:22.261Z,100991.84
2018-07-22T04:18:52.931Z,100998.69
2018-07-22T04:21:23.365Z,101001.20
2018-07-22T04:23:52.399Z,101006.41
2018-07-22T04:26:22.127Z,101006.94
2018-07-22T04:28:51.569Z,101001.47
2018-07-22T04:31:20.966Z,101006.94
2018-07-22T04:33:49.966Z,101005.86
2018-07-22T04:36:18.888Z,101005.02
2018-07-22T04:38:47.906Z,101008.38
2018-07-22T04:41:16.817Z,101009.72
2018-07-22T04:43:45.706Z,101013.27
2018-07-22T04:46:14.639Z,101021.45
2018-07-22T04:48:43.547Z,101022.02
2018-07-22T04:51:12.477Z,101016.55
2018-07-22T04:53:41.413Z,101026.65
2018-07-22T04:56:10.322Z,101016.83
2018-07-22T04:58:39.222Z,101020.92
2018-07-22T05:01:08.137Z,101018.20
2018-07-22T05:03:37.030Z,101024.45
2018-07-22T05:06:05.955Z,101021.17
2018-07-22T05:08:34.863Z,101020.64
2018-07-22T05:11:03.776Z,101022.83
2018-07-22T05:13:32.669Z,101025.28
2018-07-22T05:16:01.577Z,101031.02
2018-07-22T05:18:30.467Z,101032.92
2018-07-22T05:20:59.374Z,101036.73
2018-07-22T05:23:29.113Z,101034.30
2018-07-22T05:25:58.034Z,101035.95
2018-07-22T05:28:30.397Z,101043.30
2018-07-22T05:30:59.415Z,101039.20
2018-07-22T05:33:28.343Z,101041.63
2018-07-22T05:35:57.340Z,101041.13
2018-07-22T05:38:29.423Z,101045.75
2018-07-22T05:40:58.298Z,101046.02
2018-07-22T05:43:27.209Z,101038.69
2018-07-22T05:45:56.142Z,101045.22
2018-07-22T05:48:25.049Z,101042.76
2018-07-22T05:50:53.984Z,101047.64
2018-07-22T05:53:22.906Z,101046.28
2018-07-22T05:55:51.852Z,101049.03
2018-07-22T05:58:20.776Z,101049.27
2018-07-22T06:00:49.711Z,101050.59
2018-07-22T06:03:18.619Z,101056.63
2018-07-22T06:05:47.836Z,101055.79
2018-07-22T06:08:16.897Z,101064.53
2018-07-22T06:10:48.967Z,101063.95
2018-07-22T06:13:17.930Z,101060.70
2018-07-22T06:15:46.841Z,101068.03
2018-07-22T06:18:15.760Z,101069.73
2018-07-22T06:20:44.672Z,101073.84
2018-07-22T06:23:15.575Z,101069.44
2018-07-22T06:25:44.540Z,101069.39
2018-07-22T06:28:13.466Z,101066.65
2018-07-22T06:30:42.461Z,101061.97
2018-07-22T06:33:11.391Z,101061.42
2018-07-22T06:35:40.330Z,101062.20
2018-07-22T06:38:09.364Z,101065.51
2018-07-22T06:40:38.226Z,101073.71
2018-07-22T06:43:07.179Z,101069.86
2018-07-22T06:45:36.151Z,101076.97
2018-07-22T06:48:05.339Z,101077.19
2018-07-22T06:50:34.279Z,101082.14
2018-07-22T06:53:03.247Z,101082.43
2018-07-22T06:55:32.170Z,101076.34
2018-07-22T06:58:01.529Z,101085.03
2018-07-22T07:00:30.585Z,101087.54
2018-07-22T07:02:59.805Z,101089.41
2018-07-22T07:05:29.043Z,101090.94
2018-07-22T07:07:57.987Z,101093.66
2018-07-22T07:10:26.923Z,101095.01
2018-07-22T07:12:55.826Z,101098.03
2018-07-22T07:15:24.808Z,101092.00
2018-07-22T07:17:53.734Z,101094.68
2018-07-22T07:20:23.640Z,101093.77
2018-07-22T07:22:52.643Z,101091.36
2018-07-22T07:25:21.569Z,101101.16
2018-07-22T07:27:50.507Z,101100.63
2018-07-22T07:30:19.419Z,101099.55
2018-07-22T07:32:48.337Z,101097.11
2018-07-22T07:35:17.260Z,101099.25
2018-07-22T07:37:46.166Z,101099.23
2018-07-22T07:40:15.094Z,101099.53
2018-07-22T07:42:44.043Z,101088.35
2018-07-22T07:45:12.996Z,101087.27
2018-07-22T07:47:42.173Z,101088.86
2018-07-22T07:50:11.137Z,101081.02
2018-07-22T07:52:40.074Z,101085.00
2018-07-22T07:55:08.973Z,101093.36
2018-07-22T07:57:38.374Z,101089.97
2018-07-22T08:00:07.507Z,101086.73
2018-07-22T08:02:36.407Z,101089.18
2018-07-22T08:05:05.532Z,101096.87
2018-07-22T08:07:34.504Z,101091.31
2018-07-22T08:10:05.342Z,101086.88
2018-07-22T08:12:34.460Z,101084.57
2018-07-22T08:15:03.522Z,101087.34
2018-07-22T08:17:32.477Z,101085.02
2018-07-22T08:20:01.649Z,101083.30
2018-07-22T08:22:30.580Z,101082.43
2018-07-22T08:24:59.517Z,101084.64
2018-07-22T08:27:28.477Z,101083.80
2018-07-22T08:29:57.415Z,101088.45
2018-07-22T08:32:26.322Z,101087.56
2018-07-22T08:34:55.277Z,101091.52
2018-07-22T08:37:24.267Z,101085.77
2018-07-22T08:39:53.181Z,101086.84
2018-07-22T08:42:22.092Z,101082.95
2018-07-22T08:44:51.061Z,101088.69
2018-07-22T08:55:47.122Z,101091.03
2018-07-22T09:00:53.655Z,101087.28
2018-07-22T09:03:22.572Z,101094.56
2018-07-22T09:05:51.554Z,101090.38
2018-07-22T09:08:20.542Z,101091.37
2018-07-22T09:10:49.397Z,101089.96
2018-07-22T09:13:18.320Z,101091.60
2018-07-22T09:15:47.248Z,101087.71
2018-07-22T09:18:16.150Z,101091.68
2018-07-22T09:20:45.050Z,101102.63
2018-07-22T09:23:13.968Z,101097.52
2018-07-22T09:25:46.263Z,101105.59
2018-07-22T09:28:15.163Z,101105.11
2018-07-22T09:30:44.097Z,101097.97
2018-07-22T09:33:13.017Z,101100.86
2018-07-22T09:35:42.177Z,101108.09
2018-07-22T09:38:11.761Z,101108.63
2018-07-22T09:40:41.035Z,101106.98
2018-07-22T09:43:10.347Z,101106.63
2018-07-22T09:45:39.308Z,101107.07
2018-07-22T09:48:08.228Z,101107.69
2018-07-22T09:50:37.201Z,101103.38
2018-07-22T09:53:06.165Z,101108.48
2018-07-22T09:55:35.046Z,101103.12
2018-07-22T09:58:03.965Z,101102.22
2018-07-22T10:00:38.094Z,101103.44
2018-07-22T10:03:07.117Z,101103.94
2018-07-22T10:05:36.587Z,101106.28
2018-07-22T10:08:05.649Z,101100.78
2018-07-22T10:10:34.535Z,101108.73
2018-07-22T10:13:03.480Z,101105.28
2018-07-22T10:15:32.509Z,101090.10
2018-07-22T10:18:01.455Z,101095.45
2018-07-22T10:20:30.375Z,101091.13
2018-07-22T10:22:59.282Z,101092.61
2018-07-22T10:25:28.179Z,101094.57
2018-07-22T10:27:57.234Z,101098.96
2018-07-22T10:30:26.176Z,101091.77
2018-07-22T10:32:55.080Z,101095.03
2018-07-22T10:35:24.070Z,101095.46
2018-07-22T10:37:53.005Z,101089.38
2018-07-22T10:40:21.905Z,101089.91
2018-07-22T10:42:50.823Z,101093.85
2018-07-22T10:45:19.733Z,101081.22
2018-07-22T10:47:48.621Z,101090.20
2018-07-22T10:50:17.598Z,101092.59
2018-07-22T10:52:46.501Z,101087.45
2018-07-22T10:55:15.431Z,101083.88
2018-07-22T10:57:44.301Z,101082.92
2018-07-22T11:00:13.261Z,101080.44
2018-07-22T11:02:42.217Z,101080.60
2018-07-22T11:05:11.121Z,101080.73
2018-07-22T11:07:40.018Z,101073.75
2018-07-22T11:10:08.928Z,101079.93
2018-07-22T11:12:37.885Z,101077.74
2018-07-22T11:15:07.421Z,101068.32
2018-07-22T11:17:36.305Z,101072.05
2018-07-22T11:20:05.370Z,101072.47
2018-07-22T11:22:34.364Z,101068.91
2018-07-22T11:25:03.341Z,101067.50
2018-07-22T11:27:32.274Z,101062.78
2018-07-22T11:30:01.251Z,101075.07
2018-07-22T11:32:30.178Z,101067.79
2018-07-22T11:34:59.049Z,101067.92
2018-07-22T11:37:27.982Z,101062.08
2018-07-22T11:39:56.959Z,101065.16
2018-07-22T11:42:25.825Z,101064.88
2018-07-22T11:44:54.740Z,101060.81
2018-07-22T11:47:23.732Z,101052.78
2018-07-22T11:49:52.640Z,101050.58
2018-07-22T11:52:21.534Z,101049.30
2018-07-22T11:54:50.690Z,101050.81
2018-07-22T11:57:19.592Z,101045.31
2018-07-22T11:59:48.505Z,101049.00
2018-07-22T12:02:20.642Z,101049.50
2018-07-22T12:04:49.549Z,101050.08
2018-07-22T12:07:18.460Z,101045.47
2018-07-22T12:09:47.339Z,101044.47
2018-07-22T12:12:16.246Z,101038.44
2018-07-22T12:14:45.127Z,101031.55
2018-07-22T12:17:14.076Z,101037.50
2018-07-22T12:19:42.967Z,101039.86
2018-07-22T12:22:11.896Z,101038.54
2018-07-22T12:24:40.803Z,101026.61
2018-07-22T12:27:09.745Z,101029.52
2018-07-22T12:29:39.651Z,101025.80
2018-07-22T12:32:08.578Z,101022.14
2018-07-22T12:34:37.513Z,101016.03
2018-07-22T12:37:06.551Z,101026.67
2018-07-22T12:39:41.050Z,101017.83
2018-07-22T12:42:10.269Z,101021.07
2018-07-22T12:44:39.170Z,101024.16
2018-07-22T12:47:08.125Z,101031.73
2018-07-22T12:49:37.040Z,101013.98
2018-07-22T12:52:06.071Z,101017.64
2018-07-22T12:54:34.950Z,101017.09
2018-07-22T12:57:04.029Z,101021.56
2018-07-22T12:59:32.914Z,101017.62
2018-07-22T13:02:01.798Z,101011.17
2018-07-22T13:04:30.775Z,101013.67
2018-07-22T13:06:59.702Z,101021.70
2018-07-22T13:09:28.641Z,101015.84
2018-07-22T13:11:57.544Z,101010.89
2018-07-22T13:14:26.514Z,101007.34
2018-07-22T13:16:55.419Z,101011.70
2018-07-22T13:19:24.544Z,100999.03
2018-07-22T13:21:53.543Z,100998.94
2018-07-22T13:24:22.449Z,101003.73
2018-07-22T13:26:51.421Z,101002.11
2018-07-22T13:29:20.404Z,101000.55
2018-07-22T13:31:49.338Z,100999.98
2018-07-22T13:34:18.293Z,101004.98
2018-07-22T13:36:47.265Z,101003.73
2018-07-22T13:39:16.190Z,101000.81
2018-07-22T13:41:45.192Z,101010.37
2018-07-22T13:44:16.228Z,101010.09
2018-07-22T13:46:45.149Z,101008.49
2018-07-22T13:49:14.168Z,101011.00
2018-07-22T13:51:43.132Z,101008.98
2018-07-22T13:54:12.120Z,101011.32
2018-07-22T13:56:41.025Z,101017.16
2018-07-22T13:59:09.935Z,101015.69
2018-07-22T14:01:38.863Z,101017.52
2018-07-22T14:04:07.901Z,101014.03
2018-07-22T14:06:37.061Z,101014.99
2018-07-22T14:09:08.589Z,101016.13
2018-07-22T14:11:37.711Z,101020.66
2018-07-22T14:14:06.645Z,101017.73
2018-07-22T14:16:35.794Z,101023.33
2018-07-22T14:19:05.006Z,101019.98
2018-07-22T14:21:34.102Z,101022.09
2018-07-22T14:24:03.024Z,101018.61
2018-07-22T14:26:31.965Z,101027.11
2018-07-22T14:29:01.076Z,101025.91
2018-07-22T14:56:39.509Z,101027.77
2018-07-22T15:12:55.019Z,101031.89
2018-07-22T15:15:24.608Z,101026.73
2018-07-22T15:17:53.624Z,101026.42
2018-07-22T15:20:24.553Z,101026.75
2018-07-22T15:22:53.496Z,101028.05
2018-07-22T15:25:22.432Z,101031.38
2018-07-22T15:27:51.327Z,101037.41
2018-07-22T15:30:20.445Z,101031.46
2018-07-22T15:32:49.365Z,101027.78
2018-07-22T15:35:21.533Z,101033.22
2018-07-22T15:37:50.456Z,101024.09
2018-07-22T15:40:19.337Z,101023.78
2018-07-22T15:42:48.443Z,101027.69
2018-07-22T15:45:17.319Z,101020.00
2018-07-22T15:47:46.233Z,101015.41
2018-07-22T15:50:15.196Z,101013.00
2018-07-22T15:52:44.115Z,101016.83
2018-07-22T15:55:13.139Z,101019.98
2018-07-22T15:57:41.972Z,101016.72
2018-07-22T16:00:10.921Z,101018.35
2018-07-22T16:02:43.421Z,101018.98
2018-07-22T16:05:12.323Z,101015.96
2018-07-22T16:07:41.327Z,101020.72
2018-07-22T16:10:10.272Z,101018.18
2018-07-22T16:12:39.201Z,101021.66
2018-07-22T16:15:08.218Z,101025.73
2018-07-22T16:17:37.140Z,101022.52
2018-07-22T16:20:06.306Z,101017.25
2018-07-22T16:22:35.522Z,101014.65
2018-07-22T16:25:04.588Z,101021.20
2018-07-22T16:27:33.541Z,101017.43
2018-07-22T16:30:02.539Z,101017.36
2018-07-22T16:32:32.425Z,101011.05
2018-07-22T16:35:02.185Z,101010.53
2018-07-22T16:37:31.302Z,101010.53
2018-07-22T16:53:38.867Z,101003.11
2018-07-22T16:56:16.903Z,101003.44
2018-07-22T16:58:45.892Z,101009.27
2018-07-22T17:01:15.098Z,100997.98
2018-07-22T17:03:43.977Z,101009.41
2018-07-22T17:06:12.998Z,101008.32
2018-07-22T17:11:19.755Z,101003.26
2018-07-22T17:33:26.249Z,101020.92
2018-07-22T17:36:00.617Z,101022.05
2018-07-22T17:38:29.582Z,101020.67
2018-07-22T17:40:58.486Z,101018.17
2018-07-22T17:43:27.411Z,101017.91
2018-07-22T17:45:56.367Z,101016.28
2018-07-22T17:56:43.692Z,101024.06
2018-07-22T17:59:12.686Z,101027.33
2018-07-22T18:01:41.557Z,101029.83
2018-07-22T18:04:10.509Z,101027.55
2018-07-22T18:06:39.445Z,101027.01
2018-07-22T18:09:08.933Z,101027.55
2018-07-22T18:11:38.017Z,101026.50
2018-07-22T18:14:07.005Z,101030.16
2018-07-22T18:16:36.296Z,101032.59
2018-07-22T18:19:05.240Z,101031.14
2018-07-22T18:21:34.309Z,101029.51
2018-07-22T18:24:03.219Z,101029.19
2018-07-22T18:26:32.141Z,101028.85
2018-07-22T18:29:01.192Z,101032.33
2018-07-22T18:31:30.104Z,101034.44
2018-07-22T18:33:59.002Z,101033.04
2018-07-22T18:36:27.898Z,101038.42
2018-07-22T18:38:56.863Z,101035.73
2018-07-22T18:41:25.807Z,101036.05
2018-07-22T18:43:54.751Z,101045.70
2018-07-22T18:46:23.663Z,101046.77
2018-07-22T18:48:56.464Z,101046.32
2018-07-22T18:51:25.481Z,101047.77
2018-07-22T18:53:54.574Z,101053.86
2018-07-22T18:56:23.615Z,101057.48
2018-07-22T18:58:52.582Z,101059.00
2018-07-22T19:01:21.676Z,101065.95
2018-07-22T19:03:50.640Z,101066.67
2018-07-22T19:06:19.690Z,101067.37
2018-07-22T19:08:48.570Z,101075.93
2018-07-22T19:11:21.957Z,101072.19
2018-07-22T19:13:50.848Z,101070.00
2018-07-22T19:16:19.928Z,101077.50
2018-07-22T19:18:49.068Z,101073.20
2018-07-22T19:21:17.983Z,101079.58
2018-07-22T19:23:46.881Z,101077.43
2018-07-22T19:26:15.776Z,101081.69
2018-07-22T19:28:44.726Z,101086.43
2018-07-22T19:31:13.639Z,101087.93
2018-07-22T19:33:42.576Z,101088.83
2018-07-22T19:36:11.723Z,101094.45
2018-07-22T19:38:40.893Z,101092.62
2018-07-22T19:41:10.102Z,101100.69
2018-07-22T19:43:39.330Z,101097.73
2018-07-22T19:46:08.333Z,101102.50
2018-07-22T19:48:37.255Z,101107.75
2018-07-22T19:51:06.281Z,101113.37
2018-07-22T19:53:35.201Z,101115.37
2018-07-22T19:56:04.102Z,101118.41
2018-07-22T20:34:15.449Z,101153.31
2018-07-22T20:36:44.412Z,101164.11
2018-07-22T20:39:13.369Z,101171.30
2018-07-22T20:41:42.535Z,101168.02
2018-07-22T20:44:11.441Z,101171.67
2018-07-22T20:46:40.359Z,101177.80
2018-07-22T20:49:09.303Z,101176.30
2018-07-22T21:02:45.137Z,101193.13
2018-07-22T21:05:14.051Z,101196.19
2018-07-22T21:07:42.930Z,101194.55
2018-07-22T21:10:11.823Z,101198.67
2018-07-22T21:12:53.115Z,101207.19
2018-07-22T21:15:22.085Z,101199.55
2018-07-22T21:17:51.685Z,101201.59
2018-07-22T21:20:21.388Z,101198.34
2018-07-22T21:22:50.287Z,101200.34
2018-07-22T21:25:19.597Z,101205.30
2018-07-22T21:27:48.495Z,101203.92
2018-07-22T21:30:17.699Z,101209.16
2018-07-22T21:32:46.600Z,101205.03
2018-07-22T21:35:15.543Z,101206.98
2018-07-22T21:37:44.432Z,101211.72
2018-07-22T21:40:13.440Z,101216.11
2018-07-22T21:42:42.413Z,101218.90
2018-07-22T21:45:11.296Z,101216.45
2018-07-22T21:47:40.243Z,101222.80
2018-07-22T21:50:09.231Z,101214.70
2018-07-22T21:52:38.139Z,101220.01
2018-07-22T21:55:07.206Z,101221.30
2018-07-22T21:57:36.513Z,101219.73
2018-07-22T22:00:16.636Z,101223.69
2018-07-22T22:02:45.574Z,101220.67
2018-07-22T22:05:14.472Z,101224.63
2018-07-22T22:07:43.493Z,101225.44
2018-07-22T22:10:12.502Z,101227.95
2018-07-22T22:12:41.494Z,101223.89
2018-07-22T22:15:15.793Z,101221.78
2018-07-22T22:17:44.720Z,101221.40
2018-07-22T22:20:13.777Z,101224.50
2018-07-22T22:22:42.665Z,101228.11
2018-07-22T22:25:11.624Z,101234.25
2018-07-22T22:27:40.599Z,101235.11
2018-07-22T22:30:11.745Z,101242.27
2018-07-22T22:32:41.217Z,101242.31
2018-07-22T22:35:10.492Z,101239.59
2018-07-22T22:37:40.218Z,101247.33
2018-07-22T22:40:09.580Z,101243.60
2018-07-22T22:42:38.663Z,101247.81
2018-07-22T22:45:07.598Z,101241.56
2018-07-22T22:47:36.561Z,101247.61
2018-07-22T22:50:05.561Z,101243.84
2018-07-22T22:52:34.463Z,101249.64
2018-07-22T22:55:04.087Z,101245.52
2018-07-22T22:57:33.384Z,101252.08
2018-07-22T23:00:02.607Z,101254.88
2018-07-22T23:02:34.921Z,101251.66
2018-07-22T23:05:04.806Z,101256.60
2018-07-22T23:07:34.028Z,101255.53
2018-07-22T23:10:03.234Z,101244.62
2018-07-22T23:12:32.138Z,101250.91
2018-07-22T23:15:01.065Z,101249.33
2018-07-22T23:17:29.986Z,101248.25
2018-07-22T23:19:58.889Z,101249.91
2018-07-22T23:22:27.855Z,101250.22
2018-07-22T23:24:57.029Z,101245.59
2018-07-22T23:27:25.958Z,101247.27
2018-07-22T23:29:54.870Z,101240.73
2018-07-22T23:32:23.744Z,101250.89
2018-07-22T23:34:52.629Z,101244.86
2018-07-22T23:37:21.562Z,101242.98
2018-07-22T23:39:50.450Z,101241.64
2018-07-22T23:42:19.368Z,101247.17
2018-07-22T23:44:48.295Z,101241.99
2018-07-22T23:47:17.278Z,101243.09
2018-07-22T23:49:46.173Z,101242.30
2018-07-22T23:52:15.137Z,101241.45
2018-07-22T23:54:44.248Z,101237.61
2018-07-22T23:57:13.187Z,101247.51
2018-07-22T23:59:42.075Z,101242.61
